Terminal Aerodrome Forecast
Issued by NWS

Home | Current Version | Previous Version | Text Only | Print | Product List | Glossary On
Versions: 1 2 3 4 5 6 7 8 9 10 11 12 13 14 15 16
525
FTUS43 KGRR 061722 AAA
TAFLAN
TAF AMD
KLAN 061722Z 0617/0718 23014KT P6SM BKN050
     FM071500 22015KT P6SM VCSH BKN090=

USA.gov is the U.S. government's official web portal to all federal, state and local government web resources and services.